createdAt,value
2023-02-07T00:01:56.734Z,87.95
2023-02-07T00:05:09.477Z,87.85
2023-02-07T00:08:21.849Z,88.04
2023-02-07T00:11:35.818Z,87.78
2023-02-07T00:14:49.451Z,87.98
2023-02-07T00:18:02.128Z,88.87
2023-02-07T00:21:16.486Z,89.23
2023-02-07T00:24:29.141Z,89.90
2023-02-07T00:27:41.511Z,90.25
2023-02-07T00:31:04.501Z,90.68
2023-02-07T00:34:16.962Z,90.34
2023-02-07T00:37:29.585Z,90.78
2023-02-07T00:40:42.044Z,91.72
2023-02-07T00:43:55.121Z,91.38
2023-02-07T00:47:08.420Z,91.90
2023-02-07T00:50:22.203Z,91.70
2023-02-07T00:53:34.642Z,91.69
2023-02-07T00:56:47.732Z,91.91
2023-02-07T01:00:00.133Z,92.84
2023-02-07T01:03:12.764Z,92.81
2023-02-07T01:06:25.140Z,92.66
2023-02-07T01:09:38.852Z,92.77
2023-02-07T01:12:52.147Z,93.24
2023-02-07T01:16:05.233Z,93.91
2023-02-07T01:19:17.728Z,93.52
2023-02-07T01:22:30.378Z,93.67
2023-02-07T01:25:44.211Z,94.10
2023-02-07T01:28:56.902Z,93.77
2023-02-07T01:32:10.275Z,94.54
2023-02-07T01:35:23.000Z,94.48
2023-02-07T01:38:35.358Z,94.10
2023-02-07T01:41:48.061Z,94.74
2023-02-07T01:45:06.028Z,93.90
2023-02-07T01:48:24.388Z,93.52
2023-02-07T01:51:36.887Z,94.54
2023-02-07T01:54:51.312Z,94.50
2023-02-07T01:58:04.531Z,94.32
2023-02-07T02:01:21.216Z,94.89
2023-02-07T02:04:33.880Z,94.61
2023-02-07T02:07:46.374Z,94.11
2023-02-07T02:11:17.734Z,94.68
2023-02-07T02:14:42.731Z,94.78
2023-02-07T02:18:20.637Z,94.67
2023-02-07T02:21:52.022Z,94.41
2023-02-07T02:25:22.752Z,95.02
2023-02-07T02:28:53.404Z,94.69
2023-02-07T02:32:29.585Z,94.74
2023-02-07T02:35:49.600Z,95.11
2023-02-07T02:39:09.694Z,96.21
2023-02-07T02:42:34.902Z,95.86
2023-02-07T02:45:53.589Z,97.01
2023-02-07T02:49:06.969Z,96.57
2023-02-07T02:52:19.382Z,97.01
2023-02-07T02:55:56.563Z,95.95
2023-02-07T02:59:37.820Z,95.93
2023-02-07T03:03:09.262Z,97.42
2023-02-07T03:06:24.707Z,97.27
2023-02-07T03:09:52.950Z,96.85
2023-02-07T03:13:24.518Z,95.82
2023-02-07T03:16:51.074Z,96.05
2023-02-07T03:20:12.693Z,96.45
2023-02-07T03:23:25.301Z,97.67
2023-02-07T03:26:38.492Z,97.01
2023-02-07T03:29:57.727Z,97.13
2023-02-07T03:33:11.902Z,98.63
2023-02-07T03:36:31.532Z,99.62
2023-02-07T03:39:43.908Z,99.49
2023-02-07T03:43:35.090Z,99.34
2023-02-07T03:46:49.257Z,98.95
2023-02-07T03:50:01.936Z,99.26
2023-02-07T03:53:14.244Z,98.77
2023-02-07T03:56:26.873Z,99.37
2023-02-07T03:59:39.279Z,100.00
2023-02-07T04:02:51.953Z,100.00
2023-02-07T04:06:04.897Z,100.00
2023-02-07T04:09:17.226Z,100.00
2023-02-07T04:12:32.968Z,100.00
2023-02-07T04:15:45.331Z,100.00
2023-02-07T04:18:58.030Z,100.00
2023-02-07T04:22:11.169Z,100.00
2023-02-07T04:25:23.842Z,100.00
2023-02-07T04:28:36.972Z,100.00
2023-02-07T04:31:49.663Z,100.00
2023-02-07T04:35:02.043Z,100.00
2023-02-07T04:38:14.716Z,100.00
2023-02-07T04:41:27.052Z,100.00
2023-02-07T04:44:39.708Z,100.00
2023-02-07T04:47:52.038Z,100.00
2023-02-07T04:51:05.800Z,99.68
2023-02-07T04:54:18.133Z,98.95
2023-02-07T04:57:30.758Z,99.22
2023-02-07T05:00:43.152Z,99.02
2023-02-07T05:03:55.777Z,98.67
2023-02-07T05:07:08.125Z,98.09
2023-02-07T05:10:20.716Z,97.92
2023-02-07T05:13:33.085Z,97.31
2023-02-07T05:16:45.774Z,97.42
2023-02-07T05:19:58.196Z,98.12
2023-02-07T05:23:10.916Z,96.82
2023-02-07T05:26:23.250Z,96.40
2023-02-07T05:29:37.127Z,97.06
2023-02-07T05:33:07.828Z,97.60
2023-02-07T05:36:20.503Z,97.22
2023-02-07T05:39:32.905Z,97.68
2023-02-07T05:42:45.523Z,97.65
2023-02-07T05:45:57.895Z,98.41
2023-02-07T05:49:10.528Z,98.93
2023-02-07T05:52:23.091Z,97.90
2023-02-07T05:55:35.861Z,97.71
2023-02-07T05:58:48.327Z,98.98
2023-02-07T06:02:03.817Z,97.93
2023-02-07T06:05:17.900Z,97.33
2023-02-07T06:08:30.228Z,98.01
2023-02-07T06:11:42.853Z,98.29
2023-02-07T06:14:55.188Z,98.92
2023-02-07T06:18:07.838Z,98.26
2023-02-07T06:21:20.215Z,98.59
2023-02-07T06:24:32.919Z,97.53
2023-02-07T06:27:45.271Z,98.18
2023-02-07T06:30:58.137Z,98.70
2023-02-07T06:34:10.569Z,99.08
2023-02-07T06:37:23.258Z,99.74
2023-02-07T06:40:35.570Z,100.00
2023-02-07T06:43:48.261Z,100.00
2023-02-07T06:47:01.142Z,99.85
2023-02-07T06:50:13.858Z,98.99
2023-02-07T06:53:26.305Z,98.54
2023-02-07T06:56:39.026Z,98.35
2023-02-07T06:59:51.443Z,96.89
2023-02-07T07:03:04.549Z,96.55
2023-02-07T07:06:16.970Z,97.44
2023-02-07T07:09:29.653Z,96.89
2023-02-07T07:12:42.029Z,96.41
2023-02-07T07:15:54.694Z,96.25
2023-02-07T07:19:07.060Z,96.13
2023-02-07T07:22:21.188Z,96.36
2023-02-07T07:25:33.810Z,95.35
2023-02-07T07:28:46.507Z,95.17
2023-02-07T07:31:58.873Z,94.81
2023-02-07T07:35:11.586Z,94.45
2023-02-07T07:38:24.310Z,93.27
2023-02-07T07:41:36.915Z,93.97
2023-02-07T07:44:49.279Z,92.70
2023-02-07T07:48:02.070Z,91.87
2023-02-07T07:51:14.488Z,92.37
2023-02-07T07:54:27.228Z,91.78
2023-02-07T07:57:40.299Z,90.12
2023-02-07T08:00:53.028Z,89.95
2023-02-07T08:04:05.932Z,89.73
2023-02-07T08:07:18.352Z,89.24
2023-02-07T08:10:31.009Z,88.88
2023-02-07T08:13:43.470Z,88.51
2023-02-07T08:16:56.129Z,86.30
2023-02-07T08:20:09.226Z,85.73
2023-02-07T08:23:22.146Z,84.64
2023-02-07T08:26:34.477Z,84.17
2023-02-07T08:29:47.106Z,85.50
2023-02-07T08:32:59.475Z,85.15
2023-02-07T08:36:12.700Z,85.34
2023-02-07T08:39:25.072Z,84.42
2023-02-07T08:42:37.757Z,84.69
2023-02-07T08:45:50.253Z,84.98
2023-02-07T08:49:02.919Z,84.51
2023-02-07T08:52:15.283Z,84.95
2023-02-07T08:55:27.945Z,84.64
2023-02-07T08:58:41.099Z,84.69
2023-02-07T09:01:53.884Z,84.58
2023-02-07T09:05:06.800Z,84.46
2023-02-07T09:08:20.166Z,84.94
2023-02-07T09:11:32.620Z,84.70
2023-02-07T09:14:45.361Z,84.39
2023-02-07T09:17:58.174Z,84.57
2023-02-07T09:21:10.862Z,84.59
2023-02-07T09:24:23.746Z,83.41
2023-02-07T09:27:36.426Z,82.57
2023-02-07T09:30:49.441Z,82.92
2023-02-07T09:34:04.970Z,81.40
2023-02-07T09:37:17.466Z,81.53
2023-02-07T09:40:30.268Z,80.31
2023-02-07T09:44:04.353Z,78.38
2023-02-07T09:47:19.594Z,78.66
2023-02-07T09:50:35.118Z,78.06
2023-02-07T09:53:54.491Z,77.50
2023-02-07T09:57:38.347Z,77.31
2023-02-07T10:00:57.237Z,76.77
2023-02-07T10:04:19.167Z,74.84
2023-02-07T10:07:32.348Z,73.64
2023-02-07T10:11:04.701Z,72.65
2023-02-07T10:14:26.322Z,72.40
2023-02-07T10:18:02.158Z,69.58
2023-02-07T10:21:39.318Z,69.13
2023-02-07T10:25:13.060Z,69.15
2023-02-07T10:28:32.456Z,69.08
2023-02-07T10:31:48.117Z,69.30
2023-02-07T10:35:03.304Z,66.78
2023-02-07T10:38:42.213Z,66.85
2023-02-07T10:41:57.463Z,64.33
2023-02-07T10:45:12.929Z,65.67
2023-02-07T10:48:25.307Z,64.33
2023-02-07T10:51:39.672Z,64.17
2023-02-07T10:54:57.299Z,62.84
2023-02-07T10:58:25.299Z,61.09
2023-02-07T11:01:39.149Z,60.17
2023-02-07T11:04:52.016Z,59.65
2023-02-07T11:08:16.464Z,55.30
2023-02-07T11:11:33.111Z,56.25
2023-02-07T11:15:05.708Z,56.04
2023-02-07T11:18:37.707Z,56.75
2023-02-07T11:21:50.916Z,57.37
2023-02-07T11:25:05.175Z,57.48
2023-02-07T11:28:22.482Z,58.73
2023-02-07T11:31:36.784Z,58.17
2023-02-07T11:34:58.627Z,56.72
2023-02-07T11:38:16.284Z,56.47
2023-02-07T11:41:32.798Z,56.01
2023-02-07T11:44:46.131Z,56.38
2023-02-07T11:47:58.874Z,56.00
2023-02-07T11:51:15.828Z,55.64
2023-02-07T11:54:28.972Z,54.69
2023-02-07T11:57:41.852Z,55.04
2023-02-07T12:00:55.114Z,54.12
2023-02-07T12:04:25.556Z,54.46
2023-02-07T12:07:41.153Z,54.63
2023-02-07T12:11:04.609Z,54.94
2023-02-07T12:14:42.420Z,51.85
2023-02-07T12:18:02.580Z,52.68
2023-02-07T12:21:31.500Z,51.30
2023-02-07T12:24:49.100Z,52.03
2023-02-07T12:28:01.338Z,51.56
2023-02-07T12:31:26.174Z,50.09
2023-02-07T12:34:52.265Z,51.13
2023-02-07T12:38:14.292Z,51.13
2023-02-07T12:41:30.404Z,49.20
2023-02-07T12:44:47.845Z,49.30
2023-02-07T12:48:09.912Z,48.43
2023-02-07T12:51:41.583Z,49.70
2023-02-07T12:55:12.777Z,50.42
2023-02-07T12:58:42.011Z,51.70
2023-02-07T13:02:37.452Z,51.33
2023-02-07T13:06:04.936Z,51.37
2023-02-07T13:09:48.229Z,52.58
2023-02-07T13:13:23.397Z,53.57
2023-02-07T13:16:49.823Z,51.59
2023-02-07T13:20:10.027Z,50.06
2023-02-07T13:23:24.350Z,49.38
2023-02-07T13:26:37.101Z,51.41
2023-02-07T13:29:49.796Z,50.53
2023-02-07T13:33:35.842Z,49.08
2023-02-07T13:36:55.285Z,50.21
2023-02-07T13:40:14.740Z,49.25
2023-02-07T13:43:44.935Z,48.12
2023-02-07T13:47:13.776Z,47.04
2023-02-07T13:50:46.835Z,46.62
2023-02-07T13:54:18.998Z,46.55
2023-02-07T13:57:52.654Z,48.36
2023-02-07T14:01:10.031Z,48.64
2023-02-07T14:04:22.505Z,48.09
2023-02-07T14:07:36.096Z,45.93
2023-02-07T14:10:49.607Z,42.64
2023-02-07T14:14:26.781Z,42.62
2023-02-07T14:17:39.331Z,43.88
2023-02-07T14:21:02.282Z,43.00
2023-02-07T14:24:18.773Z,42.25
2023-02-07T14:27:41.613Z,43.77
2023-02-07T14:30:54.506Z,44.11
2023-02-07T14:34:11.819Z,45.02
2023-02-07T14:37:46.417Z,44.31
2023-02-07T14:41:10.749Z,44.80
2023-02-07T14:44:37.928Z,44.70
2023-02-07T14:47:50.742Z,47.24
2023-02-07T14:51:03.516Z,47.34
2023-02-07T14:54:29.630Z,47.57
2023-02-07T14:58:04.654Z,46.62
2023-02-07T15:01:18.044Z,46.72
2023-02-07T15:04:30.623Z,47.80
2023-02-07T15:07:47.194Z,48.33
2023-02-07T15:11:07.603Z,47.24
2023-02-07T15:14:28.115Z,48.45
2023-02-07T15:17:44.524Z,48.57
2023-02-07T15:20:58.553Z,47.47
2023-02-07T15:24:51.199Z,44.44
2023-02-07T15:28:26.683Z,41.48
2023-02-07T15:31:40.662Z,42.65
2023-02-07T15:34:54.709Z,43.82
2023-02-07T15:38:22.779Z,45.88
2023-02-07T15:41:35.118Z,49.88
2023-02-07T15:44:51.414Z,50.26
2023-02-07T15:48:09.767Z,51.98
2023-02-07T15:51:26.513Z,55.20
2023-02-07T15:54:40.875Z,56.43
2023-02-07T15:57:53.794Z,57.02
2023-02-07T16:01:07.494Z,58.46
2023-02-07T16:04:29.961Z,59.49
2023-02-07T16:07:42.615Z,61.55
2023-02-07T16:10:55.264Z,63.38
2023-02-07T16:14:25.492Z,63.39
2023-02-07T16:17:43.909Z,62.72
2023-02-07T16:20:56.284Z,62.51
2023-02-07T16:24:16.163Z,63.33
2023-02-07T16:27:31.776Z,64.01
2023-02-07T16:30:44.749Z,64.56
2023-02-07T16:33:57.136Z,64.95
2023-02-07T16:37:09.797Z,65.07
2023-02-07T16:40:26.671Z,66.83
2023-02-07T16:43:40.102Z,68.55
2023-02-07T16:46:52.652Z,68.99
2023-02-07T16:50:05.505Z,68.77
2023-02-07T16:53:17.929Z,68.79
2023-02-07T16:56:30.573Z,69.34
2023-02-07T16:59:43.043Z,71.39
2023-02-07T17:02:55.664Z,70.87
2023-02-07T17:06:16.398Z,71.35
2023-02-07T17:09:29.038Z,71.58
2023-02-07T17:12:43.150Z,71.73
2023-02-07T17:15:57.283Z,71.37
2023-02-07T17:19:18.383Z,71.49
2023-02-07T17:22:31.012Z,71.18
2023-02-07T17:25:43.916Z,71.71
2023-02-07T17:28:56.630Z,70.77
2023-02-07T17:32:09.587Z,73.95
2023-02-07T17:35:22.244Z,76.39
2023-02-07T17:38:34.637Z,76.19
2023-02-07T17:41:48.392Z,76.40
2023-02-07T17:45:00.788Z,76.91
2023-02-07T17:48:13.476Z,76.60
2023-02-07T17:51:26.651Z,79.08
2023-02-07T17:54:42.885Z,79.10
2023-02-07T17:57:55.229Z,81.14
2023-02-07T18:01:07.860Z,77.60
2023-02-07T18:04:20.559Z,78.10
2023-02-07T18:07:32.863Z,76.36
2023-02-07T18:10:45.672Z,77.82
2023-02-07T18:13:58.055Z,77.39
2023-02-07T18:17:10.716Z,77.05
2023-02-07T18:20:25.777Z,78.64
2023-02-07T18:23:38.724Z,81.10
2023-02-07T18:26:52.670Z,80.12
2023-02-07T18:30:05.992Z,79.52
2023-02-07T18:33:19.475Z,80.76
2023-02-07T18:36:40.228Z,80.70
2023-02-07T18:39:52.885Z,80.14
2023-02-07T18:43:05.706Z,80.64
2023-02-07T18:46:19.302Z,81.60
2023-02-07T18:49:33.869Z,83.17
2023-02-07T18:52:49.197Z,82.50
2023-02-07T18:56:05.985Z,82.36
2023-02-07T18:59:21.931Z,82.66
2023-02-07T19:02:34.643Z,82.88
2023-02-07T19:05:49.098Z,82.43
2023-02-07T19:09:01.753Z,81.71
2023-02-07T19:12:14.310Z,82.57
2023-02-07T19:15:26.974Z,82.86
2023-02-07T19:18:39.476Z,82.40
2023-02-07T19:21:52.144Z,83.24
2023-02-07T19:25:05.220Z,83.12
2023-02-07T19:28:18.892Z,83.92
2023-02-07T19:31:31.396Z,84.20
2023-02-07T19:34:44.087Z,83.60
2023-02-07T19:37:56.429Z,83.26
2023-02-07T19:41:09.091Z,82.64
2023-02-07T19:44:21.441Z,83.86
2023-02-07T19:47:34.071Z,83.63
2023-02-07T19:50:46.425Z,84.87
2023-02-07T19:53:59.111Z,86.27
2023-02-07T19:57:11.668Z,87.06
2023-02-07T20:00:24.272Z,87.01
2023-02-07T20:03:38.432Z,86.52
2023-02-07T20:06:50.804Z,87.17
2023-02-07T20:10:03.756Z,86.72
2023-02-07T20:13:16.141Z,86.89
2023-02-07T20:16:29.518Z,87.58
2023-02-07T20:19:41.911Z,89.56
2023-02-07T20:22:54.589Z,90.88
2023-02-07T20:26:08.714Z,91.66
2023-02-07T20:29:23.090Z,92.14
2023-02-07T20:32:35.524Z,90.47
2023-02-07T20:35:48.363Z,91.25
2023-02-07T20:39:00.816Z,91.55
2023-02-07T20:42:13.476Z,91.93
2023-02-07T20:45:25.824Z,91.87
2023-02-07T20:48:41.830Z,90.84
2023-02-07T20:51:54.653Z,90.90
2023-02-07T20:55:08.421Z,91.71
2023-02-07T20:58:20.739Z,92.26
2023-02-07T21:01:33.722Z,92.43
2023-02-07T21:04:46.038Z,91.86
2023-02-07T21:07:58.672Z,92.06
2023-02-07T21:11:11.233Z,92.38
2023-02-07T21:14:29.630Z,92.27
2023-02-07T21:17:41.989Z,92.44
2023-02-07T21:20:54.640Z,92.39
2023-02-07T21:24:07.399Z,91.65
2023-02-07T21:27:20.017Z,92.61
2023-02-07T21:30:33.698Z,91.36
2023-02-07T21:33:47.406Z,92.09
2023-02-07T21:36:59.800Z,92.26
2023-02-07T21:40:12.454Z,92.24
2023-02-07T21:43:24.820Z,92.10
2023-02-07T21:46:39.463Z,91.78
2023-02-07T21:49:51.806Z,92.26
2023-02-07T21:53:04.455Z,92.13
2023-02-07T21:56:18.478Z,91.44
2023-02-07T21:59:31.138Z,92.17
2023-02-07T22:02:43.465Z,92.14
2023-02-07T22:05:56.102Z,92.32
2023-02-07T22:09:08.772Z,92.84
2023-02-07T22:12:21.436Z,93.22
2023-02-07T22:15:34.323Z,93.04
2023-02-07T22:18:47.001Z,93.15
2023-02-07T22:21:59.500Z,92.88
2023-02-07T22:25:12.385Z,92.84
2023-02-07T22:28:24.819Z,93.55
2023-02-07T22:31:39.025Z,93.30
2023-02-07T22:34:51.417Z,92.68
2023-02-07T22:38:04.275Z,91.14
2023-02-07T22:41:16.888Z,91.52
2023-02-07T22:44:29.526Z,91.44
2023-02-07T22:47:41.875Z,91.84
2023-02-07T22:50:54.486Z,92.76
2023-02-07T22:54:08.008Z,93.42
2023-02-07T22:57:20.828Z,92.89
2023-02-07T23:00:33.283Z,92.76
2023-02-07T23:03:46.006Z,92.88
2023-02-07T23:06:58.411Z,92.75
2023-02-07T23:10:11.167Z,93.13
2023-02-07T23:13:23.577Z,93.29
2023-02-07T23:16:36.235Z,92.95
2023-02-07T23:19:48.599Z,92.65
2023-02-07T23:23:01.532Z,92.01
2023-02-07T23:26:15.299Z,89.24
2023-02-07T23:29:28.013Z,88.16
2023-02-07T23:32:40.925Z,87.25
2023-02-07T23:35:53.546Z,86.36
2023-02-07T23:39:05.892Z,85.68
2023-02-07T23:42:18.548Z,84.42
2023-02-07T23:45:30.905Z,83.15
2023-02-07T23:48:43.583Z,82.57
2023-02-07T23:51:55.945Z,81.73
2023-02-07T23:55:08.622Z,82.18
2023-02-07T23:58:21.605Z,82.56
